createdAt,value
2019-02-22T00:02:33.226Z,1.75
2019-02-22T00:05:01.979Z,1.70
2019-02-22T00:07:31.091Z,1.88
2019-02-22T00:09:59.808Z,1.72
2019-02-22T00:12:29.883Z,1.71
2019-02-22T00:15:16.994Z,1.80
2019-02-22T00:17:53.400Z,1.90
2019-02-22T00:20:22.395Z,1.88
2019-02-22T00:22:58.960Z,1.83
2019-02-22T00:25:29.221Z,1.77
2019-02-22T00:27:57.975Z,1.85
2019-02-22T00:30:28.196Z,1.84
2019-02-22T00:32:56.993Z,1.82
2019-02-22T00:35:25.737Z,1.85
2019-02-22T00:37:54.523Z,1.84
2019-02-22T00:40:23.441Z,1.84
2019-02-22T00:42:52.180Z,1.86
2019-02-22T00:45:20.908Z,1.67
2019-02-22T00:47:50.168Z,1.61
2019-02-22T00:50:18.888Z,1.74
2019-02-22T00:52:47.629Z,1.99
2019-02-22T00:55:16.552Z,1.83
2019-02-22T00:57:45.284Z,1.76
2019-02-22T01:00:14.724Z,1.61
2019-02-22T01:02:43.922Z,1.46
2019-02-22T01:05:12.658Z,1.24
2019-02-22T01:07:41.434Z,1.23
2019-02-22T01:10:10.236Z,1.34
2019-02-22T01:12:38.978Z,1.32
2019-02-22T01:15:07.823Z,1.32
2019-02-22T01:17:37.132Z,1.33
2019-02-22T01:20:06.675Z,1.36
2019-02-22T01:22:35.426Z,1.32
2019-02-22T01:25:04.872Z,1.45
2019-02-22T01:27:35.273Z,1.47
2019-02-22T01:30:04.820Z,1.45
2019-02-22T01:32:33.820Z,1.52
2019-02-22T01:35:02.634Z,1.58
2019-02-22T01:37:31.465Z,1.68
2019-02-22T01:40:00.487Z,1.80
2019-02-22T01:42:32.496Z,1.79
2019-02-22T01:45:01.390Z,1.79
2019-02-22T01:47:30.319Z,1.75
2019-02-22T01:49:59.105Z,1.75
2019-02-22T01:52:27.822Z,1.71
2019-02-22T01:54:56.933Z,1.52
2019-02-22T01:57:25.673Z,1.34
2019-02-22T01:59:54.429Z,1.22
2019-02-22T02:02:23.610Z,1.17
2019-02-22T02:04:52.357Z,1.08
2019-02-22T02:07:21.082Z,1.00
2019-02-22T02:09:50.054Z,0.99
2019-02-22T02:12:18.786Z,1.03
2019-02-22T02:14:47.546Z,1.07
2019-02-22T02:17:17.842Z,1.06
2019-02-22T02:19:47.157Z,1.10
2019-02-22T02:22:15.970Z,1.01
2019-02-22T02:24:44.807Z,1.05
2019-02-22T02:27:13.619Z,1.13
2019-02-22T02:29:42.392Z,1.13
2019-02-22T02:32:11.415Z,1.08
2019-02-22T02:34:40.149Z,1.08
2019-02-22T02:37:08.887Z,1.13
2019-02-22T02:39:37.797Z,1.13
2019-02-22T02:42:06.521Z,1.06
2019-02-22T02:44:35.263Z,0.99
2019-02-22T02:47:04.071Z,0.98
2019-02-22T02:49:32.811Z,1.17
2019-02-22T02:52:01.531Z,1.11
2019-02-22T02:54:30.336Z,0.96
2019-02-22T02:56:59.071Z,0.70
2019-02-22T02:59:30.083Z,0.45
2019-02-22T03:01:58.962Z,0.26
2019-02-22T03:04:27.695Z,0.25
2019-02-22T03:07:00.688Z,0.33
2019-02-22T03:09:29.824Z,0.61
2019-02-22T03:11:59.567Z,0.62
2019-02-22T03:14:28.301Z,0.64
2019-02-22T03:16:57.103Z,0.65
2019-02-22T03:19:25.874Z,0.73
2019-02-22T03:21:54.611Z,0.59
2019-02-22T03:24:23.820Z,0.52
2019-02-22T03:26:52.533Z,0.63
2019-02-22T03:29:21.281Z,1.02
2019-02-22T03:31:50.275Z,0.90
2019-02-22T03:34:19.030Z,0.54
2019-02-22T03:36:47.775Z,0.41
2019-02-22T03:39:16.952Z,0.27
2019-02-22T03:41:45.690Z,0.13
2019-02-22T03:44:14.447Z,0.31
2019-02-22T03:46:43.573Z,0.22
2019-02-22T03:49:12.340Z,0.17
2019-02-22T03:51:41.156Z,0.15
2019-02-22T03:54:09.932Z,0.12
2019-02-22T03:56:38.744Z,0.10
2019-02-22T03:59:09.056Z,0.03
2019-02-22T04:01:37.947Z,0.11
2019-02-22T04:04:07.062Z,0.10
2019-02-22T04:06:35.984Z,-0.01
2019-02-22T04:09:07.785Z,-0.07
2019-02-22T04:11:45.050Z,-0.10
2019-02-22T04:14:07.125Z,-0.22
2019-02-22T04:16:39.566Z,-0.28
2019-02-22T04:19:11.266Z,-0.27
2019-02-22T04:21:40.139Z,-0.33
2019-02-22T04:24:12.001Z,-0.40
2019-02-22T04:26:42.911Z,-0.37
2019-02-22T04:29:11.850Z,-0.30
2019-02-22T04:31:44.181Z,-0.23
2019-02-22T04:34:13.877Z,-0.28
2019-02-22T04:36:42.728Z,-0.28
2019-02-22T04:39:11.589Z,-0.20
2019-02-22T04:41:40.795Z,-0.13
2019-02-22T04:44:12.716Z,-0.02
2019-02-22T04:46:41.891Z,-0.01
2019-02-22T04:49:10.676Z,-0.02
2019-02-22T04:51:39.411Z,-0.06
2019-02-22T04:54:08.206Z,-0.04
2019-02-22T04:56:36.934Z,-0.14
2019-02-22T04:59:05.671Z,0.07
2019-02-22T05:01:34.639Z,0.22
2019-02-22T05:04:03.354Z,0.49
2019-02-22T05:06:32.081Z,0.84
2019-02-22T05:09:01.075Z,1.02
2019-02-22T05:11:29.843Z,1.14
2019-02-22T05:13:58.730Z,1.23
2019-02-22T05:16:27.566Z,1.32
2019-02-22T05:18:56.693Z,1.49
2019-02-22T05:21:25.438Z,1.50
2019-02-22T05:23:54.673Z,1.69
2019-02-22T05:26:23.464Z,1.60
2019-02-22T05:29:06.282Z,1.67
2019-02-22T05:31:35.049Z,1.69
2019-02-22T05:34:08.212Z,1.70
2019-02-22T05:36:47.919Z,1.70
2019-02-22T05:39:28.875Z,1.73
2019-02-22T05:41:57.373Z,1.87
2019-02-22T05:44:41.370Z,2.01
2019-02-22T05:50:20.500Z,2.16
2019-02-22T05:52:46.888Z,2.24
2019-02-22T05:55:15.629Z,2.29
2019-02-22T05:57:44.363Z,2.32
2019-02-22T06:00:13.806Z,2.39
2019-02-22T06:02:42.527Z,2.55
2019-02-22T06:05:11.267Z,2.68
2019-02-22T06:07:40.159Z,2.84
2019-02-22T06:10:10.281Z,2.89
2019-02-22T06:12:39.011Z,2.99
2019-02-22T06:15:09.034Z,3.14
2019-02-22T06:17:37.771Z,3.46
2019-02-22T06:20:14.245Z,3.36
2019-02-22T06:22:42.984Z,3.35
2019-02-22T06:25:11.708Z,3.46
2019-02-22T06:27:41.971Z,3.56
2019-02-22T06:30:11.708Z,3.83
2019-02-22T06:32:42.293Z,3.91
2019-02-22T06:35:11.069Z,3.90
2019-02-22T06:37:39.823Z,4.12
2019-02-22T06:40:10.046Z,4.34
2019-02-22T06:42:45.898Z,4.45
2019-02-22T06:45:10.465Z,4.64
2019-02-22T06:47:39.215Z,4.98
2019-02-22T06:50:09.453Z,5.46
2019-02-22T06:52:38.202Z,5.90
2019-02-22T06:55:07.023Z,6.16
2019-02-22T06:57:36.168Z,6.69
2019-02-22T07:00:11.365Z,6.93
2019-02-22T07:02:40.202Z,6.84
2019-02-22T07:05:09.637Z,6.95
2019-02-22T07:07:38.343Z,7.17
2019-02-22T07:10:09.574Z,7.07
2019-02-22T07:12:40.034Z,7.17
2019-02-22T07:15:09.206Z,6.92
2019-02-22T07:17:39.820Z,7.22
2019-02-22T07:20:10.860Z,7.38
2019-02-22T07:22:39.671Z,7.57
2019-02-22T07:25:10.987Z,7.76
2019-02-22T07:27:39.752Z,7.61
2019-02-22T07:30:16.423Z,7.66
2019-02-22T07:32:45.283Z,7.98
2019-02-22T07:35:14.661Z,8.06
2019-02-22T07:37:44.935Z,8.09
2019-02-22T07:40:14.808Z,8.19
2019-02-22T07:42:43.615Z,8.22
2019-02-22T07:45:17.016Z,8.28
2019-02-22T07:47:46.069Z,8.41
2019-02-22T07:50:14.859Z,8.63
2019-02-22T07:52:51.960Z,8.90
2019-02-22T07:55:20.755Z,8.67
2019-02-22T07:57:49.651Z,8.84
2019-02-22T08:00:21.602Z,8.97
2019-02-22T08:02:50.348Z,9.01
2019-02-22T08:05:20.541Z,9.02
2019-02-22T08:07:56.505Z,8.89
2019-02-22T08:10:26.359Z,8.94
2019-02-22T08:12:57.507Z,9.09
2019-02-22T08:15:26.227Z,8.95
2019-02-22T08:17:54.953Z,9.09
2019-02-22T08:20:24.809Z,9.04
2019-02-22T08:22:53.535Z,9.14
2019-02-22T08:25:22.253Z,9.15
2019-02-22T08:27:54.135Z,9.16
2019-02-22T08:30:22.169Z,9.24
2019-02-22T08:33:11.941Z,9.30
2019-02-22T08:38:48.120Z,9.41
2019-02-22T08:41:18.450Z,9.36
2019-02-22T08:43:56.519Z,9.34
2019-02-22T08:46:25.232Z,9.20
2019-02-22T08:48:54.922Z,9.13
2019-02-22T08:51:23.952Z,9.23
2019-02-22T08:53:52.694Z,9.17
2019-02-22T08:56:42.031Z,9.31
2019-02-22T08:59:12.797Z,9.41
2019-02-22T09:01:53.709Z,9.41
2019-02-22T09:04:46.666Z,9.39
2019-02-22T09:07:30.898Z,9.45
2019-02-22T09:10:03.756Z,9.52
2019-02-22T09:12:35.320Z,9.71
2019-02-22T09:15:05.698Z,9.82
2019-02-22T09:17:37.559Z,9.74
2019-02-22T09:20:09.789Z,9.84
2019-02-22T09:22:38.554Z,10.14
2019-02-22T09:25:07.865Z,10.16
2019-02-22T09:27:42.243Z,10.39
2019-02-22T09:30:12.571Z,10.31
2019-02-22T09:32:43.313Z,10.46
2019-02-22T09:35:16.879Z,10.54
2019-02-22T09:37:45.625Z,10.64
2019-02-22T09:40:16.093Z,10.70
2019-02-22T09:42:44.845Z,10.67
2019-02-22T09:45:13.873Z,10.85
2019-02-22T09:47:43.019Z,10.95
2019-02-22T09:50:14.567Z,10.97
2019-02-22T09:52:43.437Z,10.91
2019-02-22T09:55:13.471Z,10.97
2019-02-22T09:57:43.439Z,11.21
2019-02-22T10:00:16.957Z,11.13
2019-02-22T10:02:45.841Z,11.30
2019-02-22T10:05:16.352Z,11.42
2019-02-22T10:07:45.044Z,11.45
2019-02-22T10:10:14.029Z,11.42
2019-02-22T10:12:43.159Z,11.48
2019-02-22T10:15:11.893Z,11.56
2019-02-22T10:17:40.896Z,11.72
2019-02-22T10:20:10.681Z,11.54
2019-02-22T10:22:39.627Z,11.51
2019-02-22T10:25:08.777Z,11.49
2019-02-22T10:27:37.578Z,11.66
2019-02-22T10:30:09.487Z,11.62
2019-02-22T10:32:38.654Z,11.71
2019-02-22T10:35:09.130Z,11.64
2019-02-22T10:37:38.028Z,11.50
2019-02-22T10:40:10.578Z,11.34
2019-02-22T10:42:39.348Z,11.23
2019-02-22T10:45:09.895Z,10.99
2019-02-22T10:47:38.870Z,10.95
2019-02-22T10:50:09.212Z,10.84
2019-02-22T10:52:39.216Z,10.85
2019-02-22T10:55:10.811Z,10.80
2019-02-22T10:57:39.700Z,10.73
2019-02-22T11:00:13.781Z,10.64
2019-02-22T11:02:43.045Z,10.54
2019-02-22T11:05:15.898Z,10.55
2019-02-22T11:07:44.627Z,10.48
2019-02-22T11:10:14.920Z,10.56
2019-02-22T11:12:43.658Z,10.49
2019-02-22T11:15:13.669Z,10.40
2019-02-22T11:17:42.539Z,10.42
2019-02-22T11:20:17.347Z,10.40
2019-02-22T11:22:46.071Z,10.41
2019-02-22T11:25:25.564Z,10.46
2019-02-22T11:27:54.279Z,10.39
2019-02-22T11:30:25.927Z,10.35
2019-02-22T11:32:56.179Z,10.40
2019-02-22T11:35:24.939Z,10.28
2019-02-22T11:37:55.371Z,10.26
2019-02-22T11:40:26.280Z,10.32
2019-02-22T11:42:55.409Z,10.26
2019-02-22T11:45:24.495Z,10.29
2019-02-22T11:47:54.773Z,10.30
2019-02-22T11:50:23.606Z,10.38
2019-02-22T11:53:02.688Z,10.44
2019-02-22T11:55:31.517Z,10.48
2019-02-22T11:58:01.281Z,10.63
2019-02-22T12:00:32.096Z,10.65
2019-02-22T12:03:15.752Z,10.75
2019-02-22T12:05:31.453Z,10.85
2019-02-22T12:08:03.589Z,10.93
2019-02-22T12:10:32.387Z,10.90
2019-02-22T12:13:01.195Z,10.94
2019-02-22T12:15:31.656Z,10.86
2019-02-22T12:18:00.382Z,10.88
2019-02-22T12:20:29.111Z,10.93
2019-02-22T12:22:58.069Z,10.95
2019-02-22T12:25:28.255Z,10.91
2019-02-22T12:28:00.338Z,10.73
2019-02-22T12:30:29.857Z,10.74
2019-02-22T12:33:01.074Z,10.76
2019-02-22T12:35:32.753Z,10.65
2019-02-22T12:38:02.919Z,10.68
2019-02-22T12:40:31.655Z,10.76
2019-02-22T12:43:00.444Z,10.74
2019-02-22T12:45:30.686Z,10.66
2019-02-22T12:48:03.666Z,10.57
2019-02-22T12:50:32.384Z,10.55
2019-02-22T12:53:01.974Z,10.53
2019-02-22T12:55:30.763Z,10.52
2019-02-22T12:58:00.177Z,10.40
2019-02-22T13:00:29.729Z,10.38
2019-02-22T13:03:01.902Z,10.30
2019-02-22T13:05:30.663Z,10.28
2019-02-22T13:08:01.066Z,10.17
2019-02-22T13:10:31.474Z,10.16
2019-02-22T13:13:00.253Z,10.05
2019-02-22T13:15:29.005Z,10.13
2019-02-22T13:17:58.862Z,10.08
2019-02-22T13:20:28.775Z,10.07
2019-02-22T13:22:58.074Z,10.01
2019-02-22T13:25:26.810Z,10.05
2019-02-22T13:27:55.535Z,10.05
2019-02-22T13:30:24.432Z,9.90
2019-02-22T13:32:53.778Z,9.96
2019-02-22T13:35:22.490Z,9.91
2019-02-22T13:37:51.299Z,9.97
2019-02-22T13:40:21.484Z,10.01
2019-02-22T13:42:50.209Z,10.14
2019-02-22T13:45:26.727Z,10.25
2019-02-22T13:47:52.296Z,10.25
2019-02-22T13:50:23.669Z,10.23
2019-02-22T13:52:54.507Z,10.20
2019-02-22T13:55:25.963Z,10.13
2019-02-22T13:58:03.847Z,10.10
2019-02-22T14:03:34.063Z,10.12
2019-02-22T14:06:17.642Z,10.20
2019-02-22T14:08:43.774Z,10.19
2019-02-22T14:11:12.555Z,10.21
2019-02-22T14:13:44.264Z,10.34
2019-02-22T14:16:12.994Z,10.20
2019-02-22T14:18:46.154Z,10.23
2019-02-22T14:21:14.977Z,10.28
2019-02-22T14:23:43.816Z,10.33
2019-02-22T14:26:12.625Z,10.35
2019-02-22T14:28:42.650Z,10.29
2019-02-22T14:31:14.117Z,10.27
2019-02-22T14:33:43.226Z,10.25
2019-02-22T14:36:12.361Z,10.25
2019-02-22T14:38:41.110Z,10.32
2019-02-22T14:41:10.080Z,10.19
2019-02-22T14:43:38.789Z,10.17
2019-02-22T14:46:07.528Z,10.09
2019-02-22T14:48:36.915Z,10.09
2019-02-22T14:51:06.155Z,10.03
2019-02-22T14:53:42.083Z,10.06
2019-02-22T14:56:13.103Z,9.97
2019-02-22T14:58:43.887Z,9.93
2019-02-22T15:01:14.995Z,9.83
2019-02-22T15:03:43.781Z,9.77
2019-02-22T15:06:13.117Z,9.71
2019-02-22T15:08:41.837Z,9.58
2019-02-22T15:11:14.340Z,9.52
2019-02-22T15:13:43.117Z,9.47
2019-02-22T15:16:27.094Z,9.39
2019-02-22T15:19:04.732Z,9.28
2019-02-22T15:21:38.120Z,9.19
2019-02-22T15:24:04.441Z,9.18
2019-02-22T15:26:35.840Z,9.08
2019-02-22T15:29:04.542Z,9.00
2019-02-22T15:31:36.039Z,8.90
2019-02-22T15:34:03.723Z,8.84
2019-02-22T15:36:34.079Z,8.64
2019-02-22T15:39:20.199Z,8.64
2019-02-22T15:41:57.690Z,8.54
2019-02-22T15:44:29.946Z,8.49
2019-02-22T15:46:58.991Z,8.44
2019-02-22T15:49:29.299Z,8.33
2019-02-22T15:52:00.020Z,8.26
2019-02-22T15:54:29.998Z,8.30
2019-02-22T15:56:58.708Z,8.18
2019-02-22T15:59:28.908Z,8.10
2019-02-22T16:01:57.693Z,8.11
2019-02-22T16:04:30.742Z,8.04
2019-02-22T16:06:59.486Z,7.99
2019-02-22T16:09:28.453Z,7.96
2019-02-22T16:11:57.190Z,7.94
2019-02-22T16:14:26.010Z,7.85
2019-02-22T16:16:54.755Z,7.84
2019-02-22T16:19:23.663Z,7.84
2019-02-22T16:21:52.404Z,7.80
2019-02-22T16:24:21.299Z,7.73
2019-02-22T16:26:51.620Z,7.69
2019-02-22T16:29:20.414Z,7.72
2019-02-22T16:31:51.085Z,7.74
2019-02-22T16:34:19.815Z,7.67
2019-02-22T16:36:54.306Z,7.63
2019-02-22T16:39:26.071Z,7.54
2019-02-22T16:41:55.898Z,7.60
2019-02-22T16:44:24.628Z,7.54
2019-02-22T16:46:57.607Z,7.54
2019-02-22T16:49:30.354Z,7.56
2019-02-22T16:52:06.790Z,7.47
2019-02-22T16:54:35.761Z,7.40
2019-02-22T16:57:06.918Z,7.37
2019-02-22T16:59:35.668Z,7.36
2019-02-22T17:02:04.400Z,7.31
2019-02-22T17:04:33.189Z,7.25
2019-02-22T17:07:01.924Z,7.23
2019-02-22T17:09:33.424Z,7.15
2019-02-22T17:12:06.803Z,7.11
2019-02-22T17:14:34.554Z,7.05
2019-02-22T17:17:03.293Z,7.04
2019-02-22T17:19:32.062Z,7.09
2019-02-22T17:28:34.565Z,6.75
2019-02-22T17:31:06.211Z,6.78
2019-02-22T17:33:35.014Z,6.76
2019-02-22T17:36:03.747Z,6.73
2019-02-22T17:38:33.071Z,6.74
2019-02-22T17:41:01.808Z,6.70
2019-02-22T17:43:30.586Z,6.67
2019-02-22T17:45:59.317Z,6.75
2019-02-22T17:48:28.044Z,6.70
2019-02-22T17:50:56.998Z,6.65
2019-02-22T17:53:25.738Z,6.59
2019-02-22T17:55:54.458Z,6.62
2019-02-22T17:58:24.675Z,6.58
2019-02-22T18:00:53.690Z,6.55
2019-02-22T18:03:22.434Z,6.61
2019-02-22T18:05:53.033Z,6.57
2019-02-22T18:08:21.756Z,6.43
2019-02-22T18:10:50.479Z,6.56
2019-02-22T18:13:19.375Z,6.53
2019-02-22T18:15:48.098Z,6.51
2019-02-22T18:18:16.833Z,6.54
2019-02-22T18:20:45.899Z,6.59
2019-02-22T18:23:29.847Z,6.67
2019-02-22T18:25:58.638Z,6.57
2019-02-22T18:28:28.740Z,6.66
2019-02-22T18:30:57.470Z,6.55
2019-02-22T18:33:26.225Z,6.62
2019-02-22T18:35:54.941Z,6.56
2019-02-22T18:38:23.673Z,6.55
2019-02-22T18:40:54.108Z,6.52
2019-02-22T18:43:22.858Z,6.56
2019-02-22T18:45:51.591Z,6.54
2019-02-22T18:48:20.365Z,6.60
2019-02-22T18:50:49.114Z,6.60
2019-02-22T18:53:23.906Z,6.63
2019-02-22T18:55:52.947Z,6.56
2019-02-22T18:58:21.664Z,6.53
2019-02-22T19:00:50.421Z,6.48
2019-02-22T19:03:20.664Z,6.49
2019-02-22T19:05:49.418Z,6.46
2019-02-22T19:08:18.188Z,6.38
2019-02-22T19:10:47.082Z,6.30
2019-02-22T19:13:23.686Z,6.34
2019-02-22T19:15:52.603Z,6.44
2019-02-22T19:18:21.341Z,6.22
2019-02-22T19:20:50.076Z,6.05
2019-02-22T19:23:19.243Z,5.96
2019-02-22T19:25:48.082Z,5.90
2019-02-22T19:28:16.799Z,5.91
2019-02-22T19:30:48.898Z,5.81
2019-02-22T19:33:17.574Z,5.79
2019-02-22T19:35:46.302Z,5.83
2019-02-22T19:38:15.578Z,5.67
2019-02-22T19:40:44.310Z,5.78
2019-02-22T19:43:13.352Z,5.79
2019-02-22T19:45:42.216Z,5.73
2019-02-22T19:48:10.956Z,6.02
2019-02-22T19:50:41.740Z,6.00
2019-02-22T19:53:10.201Z,5.98
2019-02-22T19:55:39.063Z,6.08
2019-02-22T19:58:07.898Z,6.22
2019-02-22T20:00:39.814Z,6.16
2019-02-22T20:03:08.562Z,6.15
2019-02-22T20:05:37.293Z,6.32
2019-02-22T20:08:06.427Z,6.18
2019-02-22T20:10:35.179Z,6.17
2019-02-22T20:13:04.359Z,6.26
2019-02-22T20:15:34.352Z,6.33
2019-02-22T20:18:04.256Z,6.38
2019-02-22T20:20:38.995Z,6.29
2019-02-22T20:23:10.472Z,6.45
2019-02-22T20:25:39.240Z,6.55
2019-02-22T20:28:10.802Z,6.67
2019-02-22T20:30:40.586Z,6.82
2019-02-22T20:33:09.316Z,6.83
2019-02-22T20:35:38.201Z,7.28
2019-02-22T20:38:08.416Z,6.98
2019-02-22T20:40:38.719Z,6.63
2019-02-22T20:43:07.573Z,6.49
2019-02-22T20:45:36.303Z,6.31
2019-02-22T20:48:05.646Z,6.23
2019-02-22T20:50:34.873Z,6.23
2019-02-22T20:53:03.682Z,6.28
2019-02-22T20:55:32.395Z,6.20
2019-02-22T20:58:01.181Z,6.27
2019-02-22T21:00:30.200Z,6.34
2019-02-22T21:02:58.934Z,6.44
2019-02-22T21:05:27.705Z,6.28
2019-02-22T21:07:56.450Z,6.08
2019-02-22T21:10:25.154Z,5.74
2019-02-22T21:12:54.517Z,5.79
2019-02-22T21:15:23.152Z,5.39
2019-02-22T21:17:54.706Z,4.93
2019-02-22T21:20:25.639Z,4.59
2019-02-22T21:22:54.359Z,4.30
2019-02-22T21:25:23.082Z,4.04
2019-02-22T21:27:52.057Z,3.91
2019-02-22T21:30:22.068Z,3.67
2019-02-22T21:32:50.797Z,3.52
2019-02-22T21:35:19.647Z,3.45
2019-02-22T21:37:49.812Z,3.33
2019-02-22T21:40:19.971Z,3.08
2019-02-22T21:42:48.729Z,2.90
2019-02-22T21:45:17.837Z,2.54
2019-02-22T21:47:54.750Z,2.40
2019-02-22T21:50:17.746Z,2.32
2019-02-22T21:52:47.137Z,2.28
2019-02-22T21:55:16.644Z,2.28
2019-02-22T21:57:45.437Z,2.24
2019-02-22T22:00:19.622Z,2.14
2019-02-22T22:02:48.352Z,2.04
2019-02-22T22:05:17.135Z,2.03
2019-02-22T22:07:45.849Z,1.90
2019-02-22T22:10:14.565Z,1.80
2019-02-22T22:12:43.457Z,1.71
2019-02-22T22:15:16.158Z,1.56
2019-02-22T22:17:44.871Z,1.53
2019-02-22T22:20:13.630Z,1.44
2019-02-22T22:22:42.344Z,1.41
2019-02-22T22:25:15.847Z,1.28
2019-02-22T22:27:44.600Z,1.28
2019-02-22T22:30:14.432Z,1.22
2019-02-22T22:32:43.144Z,1.10
2019-02-22T22:35:13.193Z,1.10
2019-02-22T22:37:41.918Z,1.13
2019-02-22T22:40:11.343Z,1.01
2019-02-22T22:42:40.207Z,1.01
2019-02-22T22:45:11.030Z,1.01
2019-02-22T22:47:39.747Z,0.96
2019-02-22T22:50:10.705Z,0.89
2019-02-22T22:52:39.422Z,0.84
2019-02-22T22:55:09.890Z,0.80
2019-02-22T22:57:41.235Z,0.77
2019-02-22T23:00:40.257Z,0.67
2019-02-22T23:03:10.909Z,0.58
2019-02-22T23:05:41.203Z,0.51
2019-02-22T23:08:09.926Z,0.42
2019-02-22T23:10:40.637Z,0.47
2019-02-22T23:13:09.361Z,0.49
2019-02-22T23:15:38.205Z,0.48
2019-02-22T23:18:07.103Z,0.48
2019-02-22T23:20:35.827Z,0.50
2019-02-22T23:23:04.648Z,0.49
2019-02-22T23:25:33.591Z,0.49
2019-02-22T23:28:03.428Z,0.45
2019-02-22T23:30:32.177Z,0.43
2019-02-22T23:33:01.565Z,0.43
2019-02-22T23:35:30.287Z,0.40
2019-02-22T23:37:59.031Z,0.41
2019-02-22T23:40:27.834Z,0.40
2019-02-22T23:42:56.545Z,0.38
2019-02-22T23:45:25.263Z,0.31
2019-02-22T23:47:54.079Z,0.35
2019-02-22T23:50:22.789Z,0.31
2019-02-22T23:52:51.537Z,0.26
2019-02-22T23:55:20.381Z,0.29
2019-02-22T23:57:49.101Z,0.36
